Time;durP1;ratioP1;P1;durP2;ratioP2;P2;SDS_P1;SDS_P2;PMS_P1;PMS_P2;Temp;Humidity;BMP_temperature;BMP_pressure;BME280_temperature;BME280_humidity;BME280_pressure;Samples;Min_cycle;Max_cycle;Signal;HPM_P1;HPM_P2
2021/11/08 00:00:52;;;;;;;22.70;3.53;;;10.30;99.90;;;;;;5132030;27;37910;-74
2021/11/08 00:03:24;;;;;;;22.07;3.97;;;10.20;99.90;;;;;;5126696;27;39323;-74
2021/11/08 00:05:50;;;;;;;12.57;2.77;;;10.20;99.90;;;;;;5121660;27;37210;-75
2021/11/08 00:08:17;;;;;;;19.53;3.17;;;10.20;99.90;;;;;;5112161;27;38502;-74
2021/11/08 00:10:44;;;;;;;23.67;3.43;;;10.20;99.90;;;;;;5128683;27;37092;-74
2021/11/08 00:13:11;;;;;;;18.57;3.40;;;10.20;99.90;;;;;;5130595;27;37498;-75
2021/11/08 00:18:12;;;;;;;19.27;4.07;;;10.10;99.90;;;;;;5131828;27;38775;-75
2021/11/08 00:20:44;;;;;;;18.97;3.57;;;9.90;99.90;;;;;;5121979;27;37039;-74
2021/11/08 00:23:10;;;;;;;28.27;4.95;;;9.90;99.90;;;;;;5114203;27;36866;-74
2021/11/08 00:25:41;;;;;;;22.27;3.93;;;9.90;99.90;;;;;;5133442;27;38628;-74
2021/11/08 00:28:10;;;;;;;19.57;3.87;;;9.80;99.90;;;;;;5148703;27;38226;-75
2021/11/08 00:30:37;;;;;;;19.57;3.50;;;9.70;99.90;;;;;;5147760;27;37195;-74
2021/11/08 00:33:04;;;;;;;20.53;4.43;;;9.50;99.90;;;;;;5127180;27;38615;-75
2021/11/08 00:35:31;;;;;;;17.53;3.53;;;9.40;99.90;;;;;;5130262;27;37474;-75
2021/11/08 00:37:57;;;;;;;23.03;5.07;;;9.30;99.90;;;;;;5131724;27;35478;-75
2021/11/08 00:40:23;;;;;;;18.70;4.33;;;9.20;99.90;;;;;;5132041;27;36278;-75
2021/11/08 00:42:49;;;;;;;20.70;3.83;;;9.10;99.90;;;;;;5133682;27;39896;-75
2021/11/08 00:45:15;;;;;;;27.23;3.70;;;9.00;99.90;;;;;;5135851;27;37351;-75
2021/11/08 00:47:41;;;;;;;18.97;4.23;;;9.00;99.90;;;;;;5121128;27;38058;-75
2021/11/08 00:50:08;;;;;;;25.17;4.43;;;8.90;99.90;;;;;;5151861;27;36959;-74
2021/11/08 00:52:35;;;;;;;16.23;3.93;;;8.80;99.90;;;;;;5151572;27;38973;-74
2021/11/08 00:55:01;;;;;;;26.37;5.17;;;8.60;99.90;;;;;;5151513;27;39288;-74
2021/11/08 00:57:32;;;;;;;23.63;4.07;;;8.70;99.90;;;;;;5110219;27;47254;-74
2021/11/08 00:59:59;;;;;;;22.77;3.20;;;8.80;99.90;;;;;;5118778;27;36008;-74
2021/11/08 01:02:29;;;;;;;20.53;3.63;;;8.90;99.90;;;;;;5121643;27;38751;-74
2021/11/08 01:04:58;;;;;;;27.67;4.17;;;9.00;99.90;;;;;;5129119;27;37400;-75
2021/11/08 01:07:24;;;;;;;29.50;4.20;;;9.10;99.90;;;;;;5132920;27;37076;-74
2021/11/08 01:09:51;;;;;;;25.90;5.03;;;9.10;99.90;;;;;;5118999;27;38015;-74
2021/11/08 01:12:17;;;;;;;23.20;4.20;;;9.20;99.90;;;;;;5134945;27;39457;-74
2021/11/08 01:14:44;;;;;;;21.87;3.70;;;9.20;99.90;;;;;;5119452;27;38911;-74
2021/11/08 01:17:10;;;;;;;18.57;3.77;;;9.20;99.90;;;;;;5128734;27;38137;-75
2021/11/08 01:19:36;;;;;;;26.80;4.60;;;9.10;99.90;;;;;;5138305;27;37233;-75
2021/11/08 01:22:16;;;;;;;21.37;5.23;;;9.00;99.90;;;;;;5115780;27;39515;-75
2021/11/08 01:24:52;;;;;;;24.60;3.53;;;8.90;99.90;;;;;;5135924;27;38063;-74
2021/11/08 01:27:42;;;;;;;22.13;3.50;;;8.90;99.90;;;;;;5129104;27;38740;-74
2021/11/08 01:30:35;;;;;;;24.87;3.70;;;8.80;99.90;;;;;;5122124;27;38151;-74
2021/11/08 01:35:34;;;;;;;23.57;4.10;;;8.70;99.90;;;;;;5124971;27;47959;-74
2021/11/08 01:38:07;;;;;;;15.37;3.90;;;8.60;99.90;;;;;;5128618;27;38688;-73
2021/11/08 01:40:34;;;;;;;19.20;3.53;;;8.60;99.90;;;;;;5127474;27;48893;-75
2021/11/08 01:43:01;;;;;;;23.33;4.00;;;8.60;99.90;;;;;;5129232;27;40705;-74
2021/11/08 01:45:28;;;;;;;19.70;3.73;;;8.60;99.90;;;;;;5131967;27;49041;-74
2021/11/08 01:47:54;;;;;;;31.50;3.77;;;8.70;99.90;;;;;;5135474;27;38464;-74
2021/11/08 01:50:21;;;;;;;28.80;5.57;;;8.70;99.90;;;;;;5126607;27;38020;-74
2021/11/08 01:52:47;;;;;;;28.67;4.53;;;8.70;99.90;;;;;;5128092;27;39832;-74
2021/11/08 01:55:13;;;;;;;22.70;4.20;;;8.80;99.90;;;;;;5127508;27;39002;-75
2021/11/08 01:57:41;;;;;;;24.03;4.67;;;8.90;99.90;;;;;;5129356;27;38232;-74
2021/11/08 02:00:08;;;;;;;25.17;4.00;;;8.90;99.90;;;;;;5133829;27;38011;-75
2021/11/08 02:02:35;;;;;;;22.10;4.67;;;8.80;99.90;;;;;;5144088;27;47580;-74
2021/11/08 02:05:03;;;;;;;24.27;4.60;;;8.80;99.90;;;;;;5132881;27;39386;-75
2021/11/08 02:07:30;;;;;;;24.00;5.03;;;8.80;99.90;;;;;;5148197;27;39533;-74
2021/11/08 02:09:56;;;;;;;24.83;4.27;;;8.80;99.90;;;;;;5150445;27;37366;-74
2021/11/08 02:12:23;;;;;;;21.33;4.23;;;8.90;99.90;;;;;;5150687;27;39668;-75
2021/11/08 02:14:49;;;;;;;23.30;4.23;;;8.90;99.90;;;;;;5153124;27;39369;-74
2021/11/08 02:17:15;;;;;;;28.10;5.37;;;9.10;99.90;;;;;;5131691;27;40201;-74
2021/11/08 02:19:41;;;;;;;29.73;6.10;;;9.20;99.90;;;;;;5153795;27;37261;-74
2021/11/08 02:22:07;;;;;;;29.17;4.83;;;9.30;99.90;;;;;;5137011;27;39797;-74
2021/11/08 02:24:40;;;;;;;27.87;4.80;;;9.40;99.90;;;;;;5127458;27;39063;-74
2021/11/08 02:27:07;;;;;;;23.17;5.13;;;9.50;99.90;;;;;;5129283;27;38568;-74
2021/11/08 02:29:33;;;;;;;21.20;4.03;;;9.60;99.90;;;;;;5124429;27;38549;-74
2021/11/08 02:32:00;;;;;;;22.57;3.80;;;9.70;99.90;;;;;;5126843;27;38862;-74
2021/11/08 02:34:26;;;;;;;19.07;3.97;;;9.80;99.90;;;;;;5126909;27;38077;-74
2021/11/08 02:36:52;;;;;;;23.03;3.60;;;9.80;99.90;;;;;;5116886;27;40156;-74
2021/11/08 02:39:26;;;;;;;24.03;4.53;;;9.90;99.90;;;;;;5126029;27;36880;-74
2021/11/08 02:41:52;;;;;;;25.50;3.80;;;9.90;99.90;;;;;;5108052;27;40340;-74
2021/11/08 02:44:18;;;;;;;24.90;4.97;;;9.90;99.90;;;;;;5131919;27;39982;-73
2021/11/08 02:46:45;;;;;;;16.07;3.07;;;9.90;99.90;;;;;;5134008;27;39129;-75
2021/11/08 02:49:13;;;;;;;18.13;3.70;;;9.90;99.90;;;;;;5118791;27;36533;-73
2021/11/08 02:51:47;;;;;;;17.23;3.77;;;9.90;99.90;;;;;;5128428;27;40966;-74
2021/11/08 02:54:28;;;;;;;21.63;4.33;;;9.90;99.90;;;;;;5130575;27;38144;-74
2021/11/08 02:56:54;;;;;;;19.83;3.50;;;9.80;99.90;;;;;;5132011;27;39093;-74
2021/11/08 02:59:21;;;;;;;22.70;4.07;;;9.70;99.90;;;;;;5137114;27;36836;-73
2021/11/08 03:01:48;;;;;;;22.23;4.43;;;9.60;99.90;;;;;;5137551;27;36944;-74
2021/11/08 03:04:19;;;;;;;24.67;4.37;;;9.50;99.90;;;;;;5130945;27;39331;-74
2021/11/08 03:06:46;;;;;;;17.37;3.90;;;9.40;99.90;;;;;;5129918;27;40289;-75
2021/11/08 03:09:17;;;;;;;20.57;3.97;;;9.40;99.90;;;;;;5134409;27;37784;-75
2021/11/08 03:11:44;;;;;;;19.47;3.93;;;9.40;99.90;;;;;;5135178;27;39530;-74
2021/11/08 03:14:16;;;;;;;21.10;3.90;;;9.40;99.90;;;;;;5130757;27;37251;-73
2021/11/08 03:17:01;;;;;;;16.27;3.80;;;9.40;99.90;;;;;;5137647;27;37618;-74
2021/11/08 03:19:38;;;;;;;17.77;3.40;;;9.50;99.90;;;;;;5133084;27;48338;-74
2021/11/08 03:22:18;;;;;;;24.13;3.97;;;9.40;99.90;;;;;;5126988;27;39671;-74
2021/11/08 03:24:50;;;;;;;16.77;3.33;;;9.50;99.90;;;;;;5135923;27;38975;-74
2021/11/08 03:29:51;;;;;;;17.23;3.07;;;9.30;99.90;;;;;;5131018;27;36745;-74
2021/11/08 03:32:20;;;;;;;21.03;3.93;;;9.30;99.90;;;;;;5127191;27;38468;-74
2021/11/08 03:35:01;;;;;;;16.73;3.23;;;9.20;99.90;;;;;;5131747;27;37621;-74
2021/11/08 03:37:30;;;;;;;19.20;3.40;;;9.20;99.90;;;;;;5114092;27;37163;-74
2021/11/08 03:39:56;;;;;;;20.00;4.43;;;9.10;99.90;;;;;;5114073;27;36109;-73
2021/11/08 03:42:23;;;;;;;22.03;4.50;;;9.10;99.90;;;;;;5135374;27;37993;-74
2021/11/08 03:44:49;;;;;;;18.57;4.10;;;9.10;99.90;;;;;;5115124;27;37295;-75
2021/11/08 03:47:16;;;;;;;13.30;3.13;;;9.10;99.90;;;;;;5141518;27;37968;-74
2021/11/08 03:49:42;;;;;;;12.63;3.47;;;9.00;99.90;;;;;;5134656;27;36403;-73
2021/11/08 03:52:08;;;;;;;19.03;3.70;;;9.00;99.90;;;;;;5116252;27;37960;-74
2021/11/08 03:54:35;;;;;;;18.77;3.60;;;9.00;99.90;;;;;;5115346;27;37405;-74
2021/11/08 03:57:02;;;;;;;19.40;3.30;;;8.90;99.90;;;;;;5116135;27;37611;-74
2021/11/08 03:59:28;;;;;;;23.47;3.17;;;8.90;99.90;;;;;;5134419;27;47325;-74
2021/11/08 04:01:54;;;;;;;19.03;3.87;;;8.90;99.90;;;;;;5155241;27;39653;-74
2021/11/08 04:04:21;;;;;;;17.83;2.93;;;8.90;99.90;;;;;;5132885;27;37530;-74
2021/11/08 04:06:47;;;;;;;18.27;3.67;;;8.90;99.90;;;;;;5133755;27;37741;-74
2021/11/08 04:09:14;;;;;;;17.50;3.73;;;8.90;99.90;;;;;;5149756;27;37066;-74
2021/11/08 04:11:43;;;;;;;15.00;3.63;;;9.00;99.90;;;;;;5132124;27;38043;-74
2021/11/08 04:14:11;;;;;;;22.40;3.67;;;9.00;99.90;;;;;;5136436;27;37273;-74
2021/11/08 04:16:40;;;;;;;15.50;3.37;;;9.00;99.90;;;;;;5126500;27;38187;-74
2021/11/08 04:19:07;;;;;;;18.57;3.50;;;9.00;99.90;;;;;;5123373;27;37101;-73
2021/11/08 04:21:35;;;;;;;14.67;3.23;;;9.00;99.90;;;;;;5134001;27;38674;-74
2021/11/08 04:24:02;;;;;;;14.20;3.10;;;9.10;99.90;;;;;;5134759;27;39229;-73
2021/11/08 04:26:29;;;;;;;23.47;4.17;;;9.10;99.90;;;;;;5132606;27;39488;-74
2021/11/08 04:29:03;;;;;;;21.23;4.43;;;9.20;99.90;;;;;;5134745;27;37372;-73
2021/11/08 04:31:34;;;;;;;20.40;3.73;;;9.20;99.90;;;;;;5122359;27;47303;-74
2021/11/08 04:34:04;;;;;;;16.80;3.63;;;9.20;99.90;;;;;;5134752;27;38645;-74
2021/11/08 04:37:07;;;;;;;16.33;2.90;;;9.20;99.90;;;;;;5142090;27;49035;-74
2021/11/08 04:44:55;;;;;;;18.63;3.57;;;9.40;99.90;;;;;;5132375;27;38325;-75
2021/11/08 04:48:18;;;;;;;18.53;3.00;;;9.40;99.90;;;;;;5134080;27;38733;-74
2021/11/08 04:50:18;;;;;;;14.87;2.80;;;9.40;99.90;;;;;;5123305;27;38480;-73
2021/11/08 04:53:06;;;;;;;18.10;3.03;;;9.30;99.90;;;;;;5131448;27;38908;-73
2021/11/08 04:58:51;;;;;;;18.50;3.80;;;9.20;99.90;;;;;;5135168;27;38649;-74
2021/11/08 05:29:53;;;;;;;21.92;3.40;;;8.20;99.90;;;;;;5109257;27;49604;-72
2021/11/08 05:31:28;;;;;;;14.80;3.50;;;8.10;99.90;;;;;;5129620;27;48555;-75
2021/11/08 05:33:54;;;;;;;16.83;3.33;;;8.10;99.90;;;;;;5127013;27;37293;-72
2021/11/08 05:36:21;;;;;;;16.60;3.40;;;8.10;99.90;;;;;;5126896;27;38253;-72
2021/11/08 05:38:47;;;;;;;30.60;5.63;;;8.10;99.90;;;;;;5127482;27;39007;-72
2021/11/08 05:41:13;;;;;;;19.93;4.23;;;8.20;99.90;;;;;;5130489;27;37785;-73
2021/11/08 05:43:39;;;;;;;17.57;4.43;;;8.30;99.90;;;;;;5126841;27;36462;-74
2021/11/08 05:46:05;;;;;;;15.87;4.00;;;8.30;99.90;;;;;;5154462;27;38528;-73
2021/11/08 05:48:31;;;;;;;27.67;5.03;;;8.40;99.90;;;;;;5141391;27;38015;-72
2021/11/08 05:50:57;;;;;;;21.40;4.10;;;8.50;99.90;;;;;;5134736;27;36903;-73
2021/11/08 05:53:24;;;;;;;25.40;5.33;;;8.60;99.90;;;;;;5132122;27;36121;-73
2021/11/08 05:56:03;;;;;;;17.10;4.10;;;8.60;99.90;;;;;;5128306;27;37987;-75
2021/11/08 06:48:12;;;;;;;32.33;6.20;;;8.80;99.90;;;;;;5148710;27;48230;-73
2021/11/08 06:48:28;;;;;;;20.97;5.97;;;9.10;99.90;;;;;;5135429;27;37518;-74
2021/11/08 06:50:48;;;;;;;23.57;5.50;;;9.10;99.90;;;;;;5140553;27;48930;-73
2021/11/08 06:53:19;;;;;;;32.93;6.97;;;9.10;99.90;;;;;;5135590;27;41767;-74
2021/11/08 06:55:51;;;;;;;39.77;7.30;;;9.00;99.90;;;;;;5122019;27;37332;-73
2021/11/08 06:58:19;;;;;;;23.55;5.15;;;8.90;99.90;;;;;;5139725;27;37663;-74
2021/11/08 07:00:47;;;;;;;25.43;5.50;;;8.90;99.90;;;;;;5135479;27;39455;-73
2021/11/08 07:03:13;;;;;;;20.90;5.97;;;8.80;99.90;;;;;;5136203;27;38306;-73
2021/11/08 07:05:39;;;;;;;23.13;6.37;;;8.70;99.90;;;;;;5133961;27;38291;-74
2021/11/08 07:08:06;;;;;;;26.40;5.73;;;8.70;99.90;;;;;;5137295;27;35764;-74
2021/11/08 07:10:33;;;;;;;24.70;5.70;;;8.70;99.90;;;;;;5141299;27;38688;-73
2021/11/08 07:13:00;;;;;;;22.07;5.53;;;8.70;99.90;;;;;;5135216;27;38938;-73
2021/11/08 07:15:26;;;;;;;27.17;7.93;;;8.70;99.90;;;;;;5133240;27;37906;-74
2021/11/08 07:17:53;;;;;;;30.17;6.73;;;8.80;99.90;;;;;;5147171;27;37097;-74
2021/11/08 07:20:23;;;;;;;30.73;6.57;;;8.70;99.90;;;;;;5145830;27;38694;-74
2021/11/08 07:22:51;;;;;;;27.30;7.00;;;8.80;99.90;;;;;;5147752;27;39390;-74
2021/11/08 07:25:18;;;;;;;22.70;5.60;;;8.80;99.90;;;;;;5137905;27;38346;-73
2021/11/08 07:27:48;;;;;;;20.53;5.60;;;8.80;99.90;;;;;;5139180;27;37993;-73
2021/11/08 07:30:14;;;;;;;19.87;4.33;;;8.90;99.90;;;;;;5132884;27;37857;-73
2021/11/08 07:32:41;;;;;;;26.70;5.60;;;8.90;99.90;;;;;;5124379;27;37650;-73
2021/11/08 07:35:08;;;;;;;28.50;5.07;;;9.00;99.90;;;;;;5138060;27;37176;-74
2021/11/08 07:37:35;;;;;;;19.07;4.30;;;9.00;99.90;;;;;;5158733;27;37099;-73
2021/11/08 07:40:01;;;;;;;29.20;5.20;;;9.10;99.90;;;;;;5143385;27;37440;-74
2021/11/08 07:42:27;;;;;;;29.53;5.13;;;9.20;99.90;;;;;;5145220;27;38192;-73
2021/11/08 07:44:53;;;;;;;29.73;5.10;;;9.30;99.90;;;;;;5154119;27;39098;-73
2021/11/08 07:47:19;;;;;;;32.23;6.73;;;9.30;99.90;;;;;;5148260;27;36212;-73
2021/11/08 07:49:45;;;;;;;35.17;6.07;;;9.40;99.90;;;;;;5150145;27;38831;-73
2021/11/08 07:52:11;;;;;;;22.03;5.57;;;9.40;99.90;;;;;;5165608;27;38023;-73
2021/11/08 07:54:38;;;;;;;31.53;6.03;;;9.50;99.90;;;;;;5157623;27;38162;-73
2021/11/08 07:57:05;;;;;;;28.20;6.87;;;9.50;99.90;;;;;;5144682;27;36080;-74
2021/11/08 07:59:31;;;;;;;25.50;5.70;;;9.60;99.90;;;;;;5131312;27;39324;-74
2021/11/08 08:01:58;;;;;;;28.53;6.00;;;9.60;99.90;;;;;;5163367;27;38653;-74
2021/11/08 08:04:24;;;;;;;29.00;5.37;;;9.70;99.90;;;;;;5156004;27;37826;-74
2021/11/08 08:06:50;;;;;;;25.10;4.33;;;9.70;99.90;;;;;;5154146;27;36872;-75
2021/11/08 08:09:17;;;;;;;27.00;6.43;;;9.80;99.90;;;;;;5137794;27;38823;-75
2021/11/08 08:11:44;;;;;;;21.30;5.20;;;9.90;99.90;;;;;;5141099;27;38364;-75
2021/11/08 08:14:11;;;;;;;17.10;4.20;;;10.00;99.90;;;;;;5137095;27;38793;-75
2021/11/08 08:16:37;;;;;;;25.90;4.30;;;10.00;99.90;;;;;;5144233;27;37773;-75
2021/11/08 08:19:04;;;;;;;23.80;4.77;;;10.10;99.90;;;;;;5135588;27;40386;-76
2021/11/08 08:21:30;;;;;;;33.67;6.27;;;10.10;99.90;;;;;;5145036;27;38986;-75
2021/11/08 08:24:00;;;;;;;32.87;5.93;;;10.10;99.90;;;;;;5154108;27;37920;-75
2021/11/08 08:26:32;;;;;;;17.50;3.87;;;10.10;99.90;;;;;;5138053;27;37754;-75
2021/11/08 08:29:03;;;;;;;22.23;5.72;;;10.10;99.90;;;;;;5141670;27;41620;-75
2021/11/08 08:31:31;;;;;;;27.13;5.00;;;10.10;99.90;;;;;;5161540;27;48590;-75
2021/11/08 08:33:57;;;;;;;24.83;3.83;;;10.10;99.90;;;;;;5154871;27;38054;-75
2021/11/08 08:36:23;;;;;;;25.67;4.63;;;10.10;99.90;;;;;;5162877;27;37861;-75
2021/11/08 08:38:50;;;;;;;27.60;5.33;;;10.10;99.90;;;;;;5150205;27;39721;-76
2021/11/08 08:41:17;;;;;;;22.77;4.50;;;10.10;99.90;;;;;;5136728;27;39253;-74
2021/11/08 08:43:43;;;;;;;22.57;4.03;;;10.10;99.90;;;;;;5169447;27;39843;-74
2021/11/08 08:46:10;;;;;;;28.23;4.97;;;10.10;99.90;;;;;;5161062;27;37842;-74
2021/11/08 08:48:36;;;;;;;20.53;4.17;;;10.10;99.90;;;;;;5168927;27;38571;-75
2021/11/08 08:51:03;;;;;;;24.60;4.00;;;10.20;99.90;;;;;;5160992;27;39992;-75
2021/11/08 08:53:30;;;;;;;24.17;4.43;;;10.20;99.90;;;;;;5150326;27;38074;-75
2021/11/08 08:55:56;;;;;;;23.13;5.50;;;10.30;99.90;;;;;;5146758;27;38604;-75
2021/11/08 08:58:22;;;;;;;21.57;4.10;;;10.30;99.90;;;;;;5168786;27;38706;-76
2021/11/08 09:00:49;;;;;;;20.60;3.77;;;10.30;99.90;;;;;;5147303;27;39843;-73
2021/11/08 09:03:17;;;;;;;28.73;4.33;;;10.30;99.90;;;;;;5136406;27;39565;-74
2021/11/08 09:05:45;;;;;;;19.83;4.53;;;10.40;99.90;;;;;;5154465;27;37287;-74
2021/11/08 09:08:11;;;;;;;24.27;5.00;;;10.40;99.90;;;;;;5143100;27;41778;-74
2021/11/08 09:10:40;;;;;;;20.53;4.20;;;10.50;99.90;;;;;;5153209;27;20104;-75
2021/11/08 09:13:06;;;;;;;27.07;4.13;;;10.60;99.90;;;;;;5168234;27;39509;-75
2021/11/08 09:15:34;;;;;;;20.70;4.00;;;10.70;99.90;;;;;;5157463;27;37038;-75
2021/11/08 09:18:00;;;;;;;25.10;4.07;;;10.80;99.90;;;;;;5139194;27;40752;-76
2021/11/08 09:20:29;;;;;;;23.52;4.70;;;11.00;99.90;;;;;;5149035;27;39267;-73
2021/11/08 09:22:55;;;;;;;19.17;3.50;;;11.10;99.90;;;;;;5132427;27;36794;-75
2021/11/08 09:25:24;;;;;;;13.70;2.80;;;11.30;99.90;;;;;;5135651;27;38968;-75
2021/11/08 09:27:53;;;;;;;19.90;4.13;;;11.50;99.90;;;;;;5144311;27;39752;-74
2021/11/08 09:30:22;;;;;;;24.20;5.13;;;11.70;99.90;;;;;;5131873;27;38869;-73
2021/11/08 09:32:50;;;;;;;21.00;3.67;;;11.90;99.90;;;;;;5157715;27;38125;-75
2021/11/08 09:35:16;;;;;;;22.48;4.30;;;12.00;99.90;;;;;;5147719;27;37578;-73
2021/11/08 09:37:44;;;;;;;22.95;4.15;;;12.20;99.90;;;;;;5137386;27;39610;-73
2021/11/08 09:40:23;;;;;;;14.02;3.40;;;12.40;99.90;;;;;;5151929;27;39271;-73
2021/11/08 09:42:54;;;;;;;25.50;4.30;;;12.60;99.90;;;;;;5160138;27;39096;-73
2021/11/08 09:45:22;;;;;;;16.00;3.80;;;12.60;99.90;;;;;;5155656;27;38158;-72
2021/11/08 09:47:48;;;;;;;23.45;4.10;;;12.70;99.90;;;;;;5160409;27;38758;-73
2021/11/08 09:50:18;;;;;;;23.38;4.43;;;12.80;99.90;;;;;;5145224;27;40166;-72
2021/11/08 09:52:47;;;;;;;21.08;3.75;;;12.90;99.90;;;;;;5139490;27;36941;-73
2021/11/08 09:55:16;;;;;;;21.42;3.75;;;12.80;99.90;;;;;;5141801;27;36143;-73
2021/11/08 09:57:42;;;;;;;22.90;3.65;;;12.80;99.90;;;;;;5136686;27;38030;-73
2021/11/08 10:00:40;;;;;;;19.58;3.75;;;12.70;99.90;;;;;;5152964;27;38188;-72
2021/11/08 10:03:12;;;;;;;16.77;3.30;;;12.70;99.90;;;;;;5159317;27;39507;-73
2021/11/08 10:05:42;;;;;;;15.65;3.40;;;12.70;99.90;;;;;;5166228;27;37717;-73
2021/11/08 10:08:13;;;;;;;13.77;2.90;;;12.60;99.90;;;;;;5147359;27;39642;-73
2021/11/08 10:10:39;;;;;;;19.33;3.70;;;12.60;99.90;;;;;;5153424;27;38722;-75
2021/11/08 10:13:18;;;;;;;21.88;4.25;;;12.50;99.90;;;;;;5167340;27;37150;-75
2021/11/08 10:15:48;;;;;;;19.27;3.65;;;12.50;99.90;;;;;;5143583;27;36069;-75
2021/11/08 10:18:17;;;;;;;18.38;3.65;;;12.40;99.90;;;;;;5125596;27;41042;-74
2021/11/08 10:20:47;;;;;;;19.02;3.90;;;12.30;99.90;;;;;;5130239;27;39141;-75
2021/11/08 10:23:16;;;;;;;13.57;3.35;;;12.30;99.90;;;;;;5139041;27;38591;-74
2021/11/08 10:25:43;;;;;;;15.55;3.30;;;12.20;99.90;;;;;;5141892;27;37893;-74
2021/11/08 10:28:15;;;;;;;15.80;4.28;;;12.20;99.90;;;;;;5135878;27;39234;-74
2021/11/08 10:30:43;;;;;;;18.08;4.80;;;12.10;99.90;;;;;;5138758;27;37627;-73
2021/11/08 10:33:19;;;;;;;17.58;3.50;;;12.10;99.90;;;;;;5135374;27;38394;-73
2021/11/08 10:35:57;;;;;;;21.02;3.47;;;12.20;99.90;;;;;;5127147;27;39059;-73
2021/11/08 10:38:27;;;;;;;20.77;3.85;;;12.20;99.90;;;;;;5133467;27;39738;-73
2021/11/08 10:40:53;;;;;;;20.35;3.85;;;12.30;99.90;;;;;;5123130;27;38808;-73
2021/11/08 10:43:32;;;;;;;15.90;3.35;;;12.40;99.90;;;;;;5127266;27;38000;-72
2021/11/08 10:46:08;;;;;;;16.33;3.28;;;12.50;99.90;;;;;;5123355;27;37493;-72
2021/11/08 10:48:41;;;;;;;20.67;3.17;;;12.50;99.90;;;;;;5140465;27;48234;-72
2021/11/08 10:51:09;;;;;;;18.80;3.50;;;12.50;99.90;;;;;;5128243;27;38722;-73
2021/11/08 10:53:50;;;;;;;16.95;3.40;;;12.60;99.90;;;;;;5136486;27;37978;-72
2021/11/08 10:56:25;;;;;;;16.63;3.83;;;12.60;99.90;;;;;;5145404;27;37232;-74
2021/11/08 10:58:54;;;;;;;14.55;3.42;;;12.60;99.90;;;;;;5146778;27;38640;-74
2021/11/08 11:01:27;;;;;;;17.85;3.53;;;12.60;99.90;;;;;;5142345;27;38310;-74
2021/11/08 11:03:56;;;;;;;16.60;4.03;;;12.70;99.90;;;;;;5144172;27;38405;-73
2021/11/08 11:06:37;;;;;;;18.38;4.13;;;12.80;99.90;;;;;;5126382;27;38269;-72
2021/11/08 11:09:09;;;;;;;14.45;3.20;;;12.90;99.90;;;;;;5133613;27;39695;-74
2021/11/08 11:11:36;;;;;;;;;;;13.00;99.90;;;;;;5137332;27;38273;-74
2021/11/08 11:14:03;;;;;;;16.40;2.90;;;13.00;99.90;;;;;;5135063;27;38001;-72
2021/11/08 11:16:39;;;;;;;17.33;3.92;;;13.20;99.90;;;;;;5149740;27;37643;-72
2021/11/08 11:19:10;;;;;;;12.23;2.92;;;13.30;99.90;;;;;;5147280;27;40378;-74
2021/11/08 11:21:38;;;;;;;21.17;4.25;;;13.20;99.90;;;;;;5145011;27;37800;-74
2021/11/08 11:24:06;;;;;;;21.80;3.63;;;13.40;99.90;;;;;;5145623;27;38765;-74
2021/11/08 11:26:47;;;;;;;22.52;3.72;;;13.60;99.90;;;;;;5129807;27;37123;-72
2021/11/08 11:29:13;;;;;;;14.07;4.00;;;13.50;99.90;;;;;;5134555;27;40142;-72
2021/11/08 11:31:41;;;;;;;21.45;3.65;;;13.60;99.90;;;;;;5136891;27;39226;-72
2021/11/08 11:34:14;;;;;;;14.95;3.60;;;13.90;99.90;;;;;;5144046;27;38317;-72
2021/11/08 11:36:40;;;;;;;;;;;14.00;99.90;;;;;;5149373;27;38276;-74
2021/11/08 11:39:12;;;;;;;18.00;3.33;;;13.80;99.90;;;;;;5149483;27;40534;-74
2021/11/08 11:41:42;;;;;;;16.33;3.75;;;13.60;99.90;;;;;;5137703;27;39998;-73
2021/11/08 11:44:16;;;;;;;20.80;4.40;;;13.50;99.90;;;;;;5135308;27;37990;-72
2021/11/08 11:46:45;;;;;;;20.27;3.80;;;13.60;99.90;;;;;;5131265;27;37487;-72
2021/11/08 11:49:13;;;;;;;18.58;3.95;;;13.70;99.90;;;;;;5127473;27;37898;-73
2021/11/08 11:51:52;;;;;;;16.42;4.38;;;13.60;99.90;;;;;;5140709;27;37787;-73
2021/11/08 11:54:24;;;;;;;19.33;3.88;;;13.50;99.90;;;;;;5150024;27;39029;-73
2021/11/08 11:56:52;;;;;;;16.40;3.55;;;13.50;99.90;;;;;;5141339;27;37493;-74
2021/11/08 11:59:19;;;;;;;21.13;3.88;;;13.50;99.90;;;;;;5129662;27;39021;-72
2021/11/08 12:01:46;;;;;;;22.58;3.90;;;13.50;99.90;;;;;;5147070;27;39351;-75
2021/11/08 12:04:13;;;;;;;14.75;2.95;;;13.40;99.90;;;;;;5132076;27;37873;-73
2021/11/08 12:06:43;;;;;;;16.50;3.25;;;13.40;99.90;;;;;;5136618;27;36569;-73
2021/11/08 12:09:12;;;;;;;17.70;3.90;;;13.40;99.90;;;;;;5129795;27;37784;-72
2021/11/08 12:11:45;;;;;;;16.80;3.20;;;13.40;99.90;;;;;;5133185;27;38822;-73
2021/11/08 12:14:18;;;;;;;12.88;4.50;;;13.30;99.90;;;;;;5129284;27;39088;-73
2021/11/08 12:16:58;;;;;;;20.23;4.00;;;13.50;99.90;;;;;;5140293;27;37164;-73
2021/11/08 12:19:29;;;;;;;19.52;5.05;;;13.70;99.90;;;;;;5138980;27;39625;-74
2021/11/08 12:21:55;;;;;;;21.95;6.30;;;13.90;99.90;;;;;;5124661;27;37570;-73
2021/11/08 12:24:30;;;;;;;11.05;3.45;;;13.90;99.90;;;;;;5120199;27;38377;-74
2021/11/08 12:27:04;;;;;;;17.33;3.97;;;13.90;99.90;;;;;;5153755;27;37148;-73
2021/11/08 12:29:30;;;;;;;12.77;3.45;;;13.90;99.90;;;;;;5115757;27;47111;-73
2021/11/08 12:32:05;;;;;;;20.30;3.55;;;14.00;99.90;;;;;;5141764;27;38273;-73
2021/11/08 12:34:39;;;;;;;18.20;3.20;;;14.30;99.90;;;;;;5133600;27;47364;-74
2021/11/08 12:37:06;;;;;;;20.35;3.38;;;14.50;99.90;;;;;;5148766;27;37263;-74
2021/11/08 12:39:32;;;;;;;15.02;3.28;;;14.80;99.90;;;;;;5139352;27;39356;-75
2021/11/08 12:42:07;;;;;;;14.80;3.38;;;14.80;99.90;;;;;;5116176;27;37380;-74
2021/11/08 12:44:46;;;;;;;14.98;3.20;;;14.90;99.90;;;;;;5128377;27;48900;-76
2021/11/08 12:47:14;;;;;;;13.75;3.22;;;14.90;99.90;;;;;;5135261;27;37607;-75
2021/11/08 12:49:52;;;;;;;11.80;3.00;;;15.00;99.90;;;;;;5141322;27;37587;-75
2021/11/08 12:52:25;;;;;;;14.30;3.40;;;15.00;99.90;;;;;;5160673;27;40077;-76
2021/11/08 12:54:53;;;;;;;;;;;15.00;99.90;;;;;;5163344;27;37693;-76
2021/11/08 12:57:22;;;;;;;14.73;3.20;;;15.10;99.90;;;;;;5118403;27;38594;-76
2021/11/08 12:59:55;;;;;;;17.30;3.90;;;15.10;99.90;;;;;;5128421;27;38750;-75
2021/11/08 13:02:35;;;;;;;12.45;3.72;;;15.10;99.90;;;;;;5124538;27;39003;-76
2021/11/08 13:05:05;;;;;;;11.68;2.95;;;15.20;99.90;;;;;;5138071;27;37450;-76
2021/11/08 13:07:35;;;;;;;14.77;3.75;;;14.90;99.90;;;;;;5127577;27;47253;-75
2021/11/08 13:10:05;;;;;;;18.85;4.13;;;15.00;99.90;;;;;;5127422;27;38967;-76
2021/11/08 13:12:33;;;;;;;16.65;3.55;;;14.80;99.90;;;;;;5148495;27;48961;-76
2021/11/08 13:15:21;;;;;;;16.80;3.17;;;14.80;99.90;;;;;;5131983;27;38861;-76
2021/11/08 13:18:02;;;;;;;16.08;3.28;;;14.60;99.90;;;;;;5145384;27;49002;-76
2021/11/08 13:20:48;;;;;;;18.05;3.85;;;14.60;99.90;;;;;;5160651;27;48522;-76
2021/11/08 13:23:15;;;;;;;20.48;3.83;;;14.70;99.90;;;;;;5137990;27;37186;-75
2021/11/08 13:25:53;;;;;;;19.25;3.03;;;14.60;99.90;;;;;;5134102;27;38449;-76
2021/11/08 13:28:23;;;;;;;14.90;3.78;;;14.60;99.90;;;;;;5141584;27;37772;-75
2021/11/08 13:30:58;;;;;;;9.68;2.72;;;14.70;99.90;;;;;;5112966;27;37576;-77
2021/11/08 13:33:27;;;;;;;13.85;3.55;;;14.70;99.90;;;;;;5155294;27;38609;-75
2021/11/08 13:35:55;;;;;;;13.25;3.03;;;14.50;99.90;;;;;;5137529;27;38727;-75
2021/11/08 13:38:31;;;;;;;15.82;2.72;;;14.40;99.90;;;;;;5135578;27;38549;-73
2021/11/08 13:41:09;;;;;;;16.27;3.60;;;14.30;99.90;;;;;;5132588;27;40083;-73
2021/11/08 13:43:42;;;;;;;14.50;3.45;;;14.20;99.90;;;;;;5138021;27;48943;-73
2021/11/08 13:46:13;;;;;;;13.68;3.05;;;14.10;99.90;;;;;;5133966;27;38960;-75
2021/11/08 13:48:46;;;;;;;18.55;3.70;;;14.00;99.90;;;;;;5137692;27;37609;-75
2021/11/08 13:51:29;;;;;;;18.05;3.63;;;14.10;99.90;;;;;;5142837;27;39014;-75
2021/11/08 13:54:08;;;;;;;12.48;3.20;;;14.20;99.90;;;;;;5136132;27;39258;-75
2021/11/08 13:56:38;;;;;;;20.65;3.72;;;14.20;99.90;;;;;;5134003;27;47501;-75
2021/11/08 13:59:07;;;;;;;15.25;2.83;;;14.20;99.90;;;;;;5126217;27;38185;-75
2021/11/08 14:01:37;;;;;;;14.75;3.10;;;14.20;99.90;;;;;;5113678;27;39888;-75
2021/11/08 14:04:05;;;;;;;17.73;3.45;;;14.40;99.90;;;;;;5125090;27;36691;-75
2021/11/08 14:06:41;;;;;;;15.93;3.00;;;14.40;99.90;;;;;;5125477;27;37866;-75
2021/11/08 14:09:10;;;;;;;18.45;3.28;;;14.50;99.90;;;;;;5126891;27;37229;-75
2021/11/08 14:11:42;;;;;;;16.27;3.05;;;14.30;99.90;;;;;;5121281;27;39911;-75
2021/11/08 14:14:30;;;;;;;13.00;2.85;;;14.00;99.90;;;;;;5133246;27;38975;-74
2021/11/08 14:17:15;;;;;;;11.82;3.13;;;13.80;99.90;;;;;;5140549;27;38197;-74
2021/11/08 14:19:42;;;;;;;10.10;2.35;;;13.60;99.90;;;;;;5140037;27;47668;-74
2021/11/08 14:22:10;;;;;;;9.65;2.50;;;13.50;99.90;;;;;;5142464;27;38294;-74
2021/11/08 14:24:39;;;;;;;12.23;2.67;;;13.40;99.90;;;;;;5141031;27;37549;-74
2021/11/08 14:27:11;;;;;;;21.33;3.58;;;13.30;99.90;;;;;;5138119;27;39254;-75